sensor_id;sensor_type;location;lat;lon;timestamp;temperature;humidity
3504;DHT22;1766;53.490;10.174;2023-07-22T00:00:17;20.30;60.40
3504;DHT22;1766;53.490;10.174;2023-07-22T00:02:22;20.30;60.30
3504;DHT22;1766;53.490;10.174;2023-07-22T00:04:25;20.30;60.30
3504;DHT22;1766;53.490;10.174;2023-07-22T00:06:28;20.20;60.20
3504;DHT22;1766;53.490;10.174;2023-07-22T00:08:32;20.20;60.00
3504;DHT22;1766;53.490;10.174;2023-07-22T00:10:34;20.20;60.30
3504;DHT22;1766;53.490;10.174;2023-07-22T00:12:36;20.20;60.10
3504;DHT22;1766;53.490;10.174;2023-07-22T00:14:40;20.20;60.40
3504;DHT22;1766;53.490;10.174;2023-07-22T00:16:43;20.20;60.70
3504;DHT22;1766;53.490;10.174;2023-07-22T00:18:44;20.10;60.30
3504;DHT22;1766;53.490;10.174;2023-07-22T00:20:46;20.20;60.50
3504;DHT22;1766;53.490;10.174;2023-07-22T00:22:48;20.20;60.60
3504;DHT22;1766;53.490;10.174;2023-07-22T00:24:52;20.10;60.60
3504;DHT22;1766;53.490;10.174;2023-07-22T00:26:54;20.20;60.90
3504;DHT22;1766;53.490;10.174;2023-07-22T00:28:56;20.20;60.80
3504;DHT22;1766;53.490;10.174;2023-07-22T00:30:58;20.20;60.70
3504;DHT22;1766;53.490;10.174;2023-07-22T00:32:59;20.10;60.60
3504;DHT22;1766;53.490;10.174;2023-07-22T00:35:01;20.10;60.60
3504;DHT22;1766;53.490;10.174;2023-07-22T00:37:03;20.10;60.80
3504;DHT22;1766;53.490;10.174;2023-07-22T00:39:05;20.10;60.90
3504;DHT22;1766;53.490;10.174;2023-07-22T00:41:08;20.10;60.90
3504;DHT22;1766;53.490;10.174;2023-07-22T00:43:12;20.10;60.80
3504;DHT22;1766;53.490;10.174;2023-07-22T00:45:14;20.10;60.80
3504;DHT22;1766;53.490;10.174;2023-07-22T00:47:18;20.10;60.90
3504;DHT22;1766;53.490;10.174;2023-07-22T00:49:21;21.00;62.20
3504;DHT22;1766;53.490;10.174;2023-07-22T00:51:24;20.10;61.40
3504;DHT22;1766;53.490;10.174;2023-07-22T00:53:26;20.10;61.80
3504;DHT22;1766;53.490;10.174;2023-07-22T00:55:28;20.10;61.20
3504;DHT22;1766;53.490;10.174;2023-07-22T00:57:31;20.10;61.00
3504;DHT22;1766;53.490;10.174;2023-07-22T00:59:34;20.10;61.20
3504;DHT22;1766;53.490;10.174;2023-07-22T01:01:36;20.10;61.10
3504;DHT22;1766;53.490;10.174;2023-07-22T01:03:38;20.10;61.00
3504;DHT22;1766;53.490;10.174;2023-07-22T01:05:41;20.10;61.00
3504;DHT22;1766;53.490;10.174;2023-07-22T01:07:44;20.00;61.10
3504;DHT22;1766;53.490;10.174;2023-07-22T01:09:46;19.60;60.60
3504;DHT22;1766;53.490;10.174;2023-07-22T01:11:48;20.00;61.00
3504;DHT22;1766;53.490;10.174;2023-07-22T01:13:52;20.00;61.20
3504;DHT22;1766;53.490;10.174;2023-07-22T01:15:58;20.00;61.40
3504;DHT22;1766;53.490;10.174;2023-07-22T01:18:00;20.00;61.50
3504;DHT22;1766;53.490;10.174;2023-07-22T01:20:04;20.00;61.60
3504;DHT22;1766;53.490;10.174;2023-07-22T01:22:07;20.00;61.60
3504;DHT22;1766;53.490;10.174;2023-07-22T01:24:11;20.00;61.40
3504;DHT22;1766;53.490;10.174;2023-07-22T01:26:14;20.00;61.50
3504;DHT22;1766;53.490;10.174;2023-07-22T01:28:16;19.80;61.20
3504;DHT22;1766;53.490;10.174;2023-07-22T01:30:18;20.00;61.40
3504;DHT22;1766;53.490;10.174;2023-07-22T01:32:20;19.90;61.70
3504;DHT22;1766;53.490;10.174;2023-07-22T01:34:22;19.90;61.40
3504;DHT22;1766;53.490;10.174;2023-07-22T01:36:25;20.00;61.70
3504;DHT22;1766;53.490;10.174;2023-07-22T01:38:26;19.80;61.20
3504;DHT22;1766;53.490;10.174;2023-07-22T01:40:31;19.90;61.40
3504;DHT22;1766;53.490;10.174;2023-07-22T01:42:32;19.90;61.20
3504;DHT22;1766;53.490;10.174;2023-07-22T01:44:33;20.00;61.40
3504;DHT22;1766;53.490;10.174;2023-07-22T01:46:35;19.90;61.20
3504;DHT22;1766;53.490;10.174;2023-07-22T01:48:38;19.90;62.20
3504;DHT22;1766;53.490;10.174;2023-07-22T01:50:40;19.90;62.10
3504;DHT22;1766;53.490;10.174;2023-07-22T01:52:41;19.90;61.50
3504;DHT22;1766;53.490;10.174;2023-07-22T01:54:42;19.90;61.30
3504;DHT22;1766;53.490;10.174;2023-07-22T01:56:46;19.90;62.00
3504;DHT22;1766;53.490;10.174;2023-07-22T01:58:48;19.90;61.40
3504;DHT22;1766;53.490;10.174;2023-07-22T02:00:50;19.80;61.40
3504;DHT22;1766;53.490;10.174;2023-07-22T02:02:52;19.80;61.60
3504;DHT22;1766;53.490;10.174;2023-07-22T02:04:53;19.80;61.50
3504;DHT22;1766;53.490;10.174;2023-07-22T02:06:55;19.80;61.40
3504;DHT22;1766;53.490;10.174;2023-07-22T02:08:57;19.80;61.30
3504;DHT22;1766;53.490;10.174;2023-07-22T02:11:01;19.80;61.40
3504;DHT22;1766;53.490;10.174;2023-07-22T02:13:05;19.80;61.70
3504;DHT22;1766;53.490;10.174;2023-07-22T02:15:08;19.80;61.30
3504;DHT22;1766;53.490;10.174;2023-07-22T02:17:11;19.70;61.50
3504;DHT22;1766;53.490;10.174;2023-07-22T02:19:13;19.70;61.20
3504;DHT22;1766;53.490;10.174;2023-07-22T02:21:15;19.80;61.30
3504;DHT22;1766;53.490;10.174;2023-07-22T02:23:17;19.70;61.20
3504;DHT22;1766;53.490;10.174;2023-07-22T02:25:19;19.80;61.30
3504;DHT22;1766;53.490;10.174;2023-07-22T02:27:21;19.80;61.20
3504;DHT22;1766;53.490;10.174;2023-07-22T02:29:24;19.70;61.10
3504;DHT22;1766;53.490;10.174;2023-07-22T02:31:26;19.70;60.90
3504;DHT22;1766;53.490;10.174;2023-07-22T02:33:28;19.70;60.90
3504;DHT22;1766;53.490;10.174;2023-07-22T02:35:30;19.70;60.90
3504;DHT22;1766;53.490;10.174;2023-07-22T02:37:48;19.70;61.10
3504;DHT22;1766;53.490;10.174;2023-07-22T02:39:51;19.60;61.00
3504;DHT22;1766;53.490;10.174;2023-07-22T02:41:53;19.60;60.80
3504;DHT22;1766;53.490;10.174;2023-07-22T02:43:55;19.60;60.60
3504;DHT22;1766;53.490;10.174;2023-07-22T02:46:00;19.60;60.60
3504;DHT22;1766;53.490;10.174;2023-07-22T02:48:02;19.60;61.10
3504;DHT22;1766;53.490;10.174;2023-07-22T02:50:05;19.50;60.90
3504;DHT22;1766;53.490;10.174;2023-07-22T02:52:07;18.80;60.30
3504;DHT22;1766;53.490;10.174;2023-07-22T02:54:09;19.50;60.60
3504;DHT22;1766;53.490;10.174;2023-07-22T02:56:11;19.50;60.80
3504;DHT22;1766;53.490;10.174;2023-07-22T02:58:13;19.50;60.70
3504;DHT22;1766;53.490;10.174;2023-07-22T03:00:18;19.50;60.80
3504;DHT22;1766;53.490;10.174;2023-07-22T03:02:25;19.50;61.20
3504;DHT22;1766;53.490;10.174;2023-07-22T03:04:27;19.60;60.80
3504;DHT22;1766;53.490;10.174;2023-07-22T03:06:29;19.60;60.70
3504;DHT22;1766;53.490;10.174;2023-07-22T03:08:32;19.60;60.80
3504;DHT22;1766;53.490;10.174;2023-07-22T03:10:34;19.50;60.80
3504;DHT22;1766;53.490;10.174;2023-07-22T03:12:36;19.50;60.60
3504;DHT22;1766;53.490;10.174;2023-07-22T03:14:39;19.50;61.00
3504;DHT22;1766;53.490;10.174;2023-07-22T03:16:41;19.50;60.70
3504;DHT22;1766;53.490;10.174;2023-07-22T03:18:44;19.50;60.80
3504;DHT22;1766;53.490;10.174;2023-07-22T03:20:46;19.50;61.00
3504;DHT22;1766;53.490;10.174;2023-07-22T03:22:48;19.40;60.80
3504;DHT22;1766;53.490;10.174;2023-07-22T03:24:50;19.40;61.00
3504;DHT22;1766;53.490;10.174;2023-07-22T03:26:53;19.40;60.80
3504;DHT22;1766;53.490;10.174;2023-07-22T03:28:56;19.40;61.00
3504;DHT22;1766;53.490;10.174;2023-07-22T03:30:58;19.40;61.10
3504;DHT22;1766;53.490;10.174;2023-07-22T03:33:00;19.30;61.20
3504;DHT22;1766;53.490;10.174;2023-07-22T03:35:04;19.40;61.10
3504;DHT22;1766;53.490;10.174;2023-07-22T03:37:06;19.40;61.50
3504;DHT22;1766;53.490;10.174;2023-07-22T03:39:10;19.40;61.10
3504;DHT22;1766;53.490;10.174;2023-07-22T03:41:12;19.40;61.10
3504;DHT22;1766;53.490;10.174;2023-07-22T03:43:14;19.30;61.00
3504;DHT22;1766;53.490;10.174;2023-07-22T03:45:16;19.40;61.20
3504;DHT22;1766;53.490;10.174;2023-07-22T03:47:19;19.40;61.40
3504;DHT22;1766;53.490;10.174;2023-07-22T03:49:20;19.50;61.20
3504;DHT22;1766;53.490;10.174;2023-07-22T03:51:23;19.40;61.20
3504;DHT22;1766;53.490;10.174;2023-07-22T03:53:26;19.40;61.20
3504;DHT22;1766;53.490;10.174;2023-07-22T03:55:28;19.40;61.80
3504;DHT22;1766;53.490;10.174;2023-07-22T03:57:31;19.40;61.40
3504;DHT22;1766;53.490;10.174;2023-07-22T03:59:32;19.40;61.50
3504;DHT22;1766;53.490;10.174;2023-07-22T04:01:34;19.30;61.20
3504;DHT22;1766;53.490;10.174;2023-07-22T04:03:36;19.40;61.30
3504;DHT22;1766;53.490;10.174;2023-07-22T04:05:38;19.40;61.50
3504;DHT22;1766;53.490;10.174;2023-07-22T04:07:41;19.40;61.50
3504;DHT22;1766;53.490;10.174;2023-07-22T04:09:43;19.40;61.60
3504;DHT22;1766;53.490;10.174;2023-07-22T04:11:46;19.30;61.80
3504;DHT22;1766;53.490;10.174;2023-07-22T04:13:48;19.30;61.40
3504;DHT22;1766;53.490;10.174;2023-07-22T04:15:49;19.30;61.60
3504;DHT22;1766;53.490;10.174;2023-07-22T04:17:51;19.30;61.80
3504;DHT22;1766;53.490;10.174;2023-07-22T04:19:54;19.30;61.70
3504;DHT22;1766;53.490;10.174;2023-07-22T04:21:55;19.30;61.80
3504;DHT22;1766;53.490;10.174;2023-07-22T04:23:58;19.40;61.70
3504;DHT22;1766;53.490;10.174;2023-07-22T04:26:02;19.30;61.70
3504;DHT22;1766;53.490;10.174;2023-07-22T04:28:05;19.30;62.10
3504;DHT22;1766;53.490;10.174;2023-07-22T04:30:08;19.30;61.90
3504;DHT22;1766;53.490;10.174;2023-07-22T04:32:11;19.30;62.10
3504;DHT22;1766;53.490;10.174;2023-07-22T04:34:14;19.30;62.50
3504;DHT22;1766;53.490;10.174;2023-07-22T04:36:16;19.30;62.30
3504;DHT22;1766;53.490;10.174;2023-07-22T04:38:18;19.30;62.00
3504;DHT22;1766;53.490;10.174;2023-07-22T04:40:24;19.40;62.20
3504;DHT22;1766;53.490;10.174;2023-07-22T04:42:26;19.40;62.40
3504;DHT22;1766;53.490;10.174;2023-07-22T04:44:28;19.40;62.10
3504;DHT22;1766;53.490;10.174;2023-07-22T04:46:30;19.40;62.00
3504;DHT22;1766;53.490;10.174;2023-07-22T04:48:32;19.30;61.90
3504;DHT22;1766;53.490;10.174;2023-07-22T04:50:34;19.40;62.00
3504;DHT22;1766;53.490;10.174;2023-07-22T04:52:36;19.40;62.00
3504;DHT22;1766;53.490;10.174;2023-07-22T04:54:38;19.40;62.20
3504;DHT22;1766;53.490;10.174;2023-07-22T04:56:42;19.40;62.00
3504;DHT22;1766;53.490;10.174;2023-07-22T04:58:44;19.40;62.10
3504;DHT22;1766;53.490;10.174;2023-07-22T05:00:47;19.40;62.20
3504;DHT22;1766;53.490;10.174;2023-07-22T05:02:52;19.50;62.60
3504;DHT22;1766;53.490;10.174;2023-07-22T05:04:56;19.50;62.30
3504;DHT22;1766;53.490;10.174;2023-07-22T05:06:58;19.40;62.50
3504;DHT22;1766;53.490;10.174;2023-07-22T05:08:59;19.50;62.50
3504;DHT22;1766;53.490;10.174;2023-07-22T05:11:01;19.50;62.50
3504;DHT22;1766;53.490;10.174;2023-07-22T05:13:05;19.50;62.50
3504;DHT22;1766;53.490;10.174;2023-07-22T05:15:09;19.60;62.50
3504;DHT22;1766;53.490;10.174;2023-07-22T05:17:11;19.60;63.00
3504;DHT22;1766;53.490;10.174;2023-07-22T05:19:14;19.60;62.70
3504;DHT22;1766;53.490;10.174;2023-07-22T05:21:16;19.70;62.90
3504;DHT22;1766;53.490;10.174;2023-07-22T05:23:18;19.70;62.80
3504;DHT22;1766;53.490;10.174;2023-07-22T05:25:21;19.70;62.80
3504;DHT22;1766;53.490;10.174;2023-07-22T05:27:22;19.70;62.50
3504;DHT22;1766;53.490;10.174;2023-07-22T05:29:26;19.80;62.80
3504;DHT22;1766;53.490;10.174;2023-07-22T05:31:28;19.70;62.50
3504;DHT22;1766;53.490;10.174;2023-07-22T05:33:31;19.80;62.50
3504;DHT22;1766;53.490;10.174;2023-07-22T05:35:34;19.80;62.70
3504;DHT22;1766;53.490;10.174;2023-07-22T05:37:38;19.80;62.50
3504;DHT22;1766;53.490;10.174;2023-07-22T05:39:41;19.80;62.70
3504;DHT22;1766;53.490;10.174;2023-07-22T05:41:43;19.80;62.60
3504;DHT22;1766;53.490;10.174;2023-07-22T05:43:45;19.80;62.70
3504;DHT22;1766;53.490;10.174;2023-07-22T05:45:48;19.80;62.60
3504;DHT22;1766;53.490;10.174;2023-07-22T05:47:50;19.80;62.60
3504;DHT22;1766;53.490;10.174;2023-07-22T05:49:52;19.90;62.70
3504;DHT22;1766;53.490;10.174;2023-07-22T05:51:54;19.90;62.50
3504;DHT22;1766;53.490;10.174;2023-07-22T05:53:56;19.90;62.60
3504;DHT22;1766;53.490;10.174;2023-07-22T05:55:59;19.90;62.80
3504;DHT22;1766;53.490;10.174;2023-07-22T05:58:02;19.90;62.60
3504;DHT22;1766;53.490;10.174;2023-07-22T06:00:08;20.00;62.90
3504;DHT22;1766;53.490;10.174;2023-07-22T06:02:18;19.90;62.70
3504;DHT22;1766;53.490;10.174;2023-07-22T06:04:20;20.00;62.50
3504;DHT22;1766;53.490;10.174;2023-07-22T06:06:22;19.90;62.50
3504;DHT22;1766;53.490;10.174;2023-07-22T06:08:24;20.10;62.80
3504;DHT22;1766;53.490;10.174;2023-07-22T06:10:26;20.10;62.70
3504;DHT22;1766;53.490;10.174;2023-07-22T06:12:28;20.20;62.60
3504;DHT22;1766;53.490;10.174;2023-07-22T06:14:30;20.20;62.60
3504;DHT22;1766;53.490;10.174;2023-07-22T06:16:32;20.10;62.20
3504;DHT22;1766;53.490;10.174;2023-07-22T06:18:35;20.20;62.30
3504;DHT22;1766;53.490;10.174;2023-07-22T06:20:39;20.30;62.50
3504;DHT22;1766;53.490;10.174;2023-07-22T06:22:41;20.30;62.50
3504;DHT22;1766;53.490;10.174;2023-07-22T06:24:43;20.30;62.40
3504;DHT22;1766;53.490;10.174;2023-07-22T06:26:45;20.40;62.20
3504;DHT22;1766;53.490;10.174;2023-07-22T06:28:47;20.40;62.20
3504;DHT22;1766;53.490;10.174;2023-07-22T06:30:49;20.40;62.20
3504;DHT22;1766;53.490;10.174;2023-07-22T06:32:52;20.50;62.30
3504;DHT22;1766;53.490;10.174;2023-07-22T06:34:55;20.60;61.70
3504;DHT22;1766;53.490;10.174;2023-07-22T06:36:57;20.60;61.90
3504;DHT22;1766;53.490;10.174;2023-07-22T06:39:00;20.70;61.60
3504;DHT22;1766;53.490;10.174;2023-07-22T06:41:03;20.70;61.60
3504;DHT22;1766;53.490;10.174;2023-07-22T06:43:05;20.80;61.10
3504;DHT22;1766;53.490;10.174;2023-07-22T06:45:08;20.80;61.10
3504;DHT22;1766;53.490;10.174;2023-07-22T06:47:10;20.90;61.20
3504;DHT22;1766;53.490;10.174;2023-07-22T06:49:12;20.90;60.60
3504;DHT22;1766;53.490;10.174;2023-07-22T06:51:16;21.00;60.40
3504;DHT22;1766;53.490;10.174;2023-07-22T06:53:17;21.00;60.20
3504;DHT22;1766;53.490;10.174;2023-07-22T06:55:19;21.20;60.00
3504;DHT22;1766;53.490;10.174;2023-07-22T06:57:20;21.20;59.90
3504;DHT22;1766;53.490;10.174;2023-07-22T06:59:22;21.20;59.60
3504;DHT22;1766;53.490;10.174;2023-07-22T07:01:24;21.20;59.20
3504;DHT22;1766;53.490;10.174;2023-07-22T07:03:26;21.30;59.10
3504;DHT22;1766;53.490;10.174;2023-07-22T07:05:28;21.30;58.80
3504;DHT22;1766;53.490;10.174;2023-07-22T07:07:32;21.30;58.40
3504;DHT22;1766;53.490;10.174;2023-07-22T07:09:34;21.40;58.40
3504;DHT22;1766;53.490;10.174;2023-07-22T07:11:37;21.50;58.30
3504;DHT22;1766;53.490;10.174;2023-07-22T07:13:41;21.60;58.10
3504;DHT22;1766;53.490;10.174;2023-07-22T07:15:46;21.60;57.60
3504;DHT22;1766;53.490;10.174;2023-07-22T07:17:49;21.70;57.50
3504;DHT22;1766;53.490;10.174;2023-07-22T07:19:50;21.70;56.80
3504;DHT22;1766;53.490;10.174;2023-07-22T07:21:52;21.80;56.70
3504;DHT22;1766;53.490;10.174;2023-07-22T07:23:56;21.80;56.70
3504;DHT22;1766;53.490;10.174;2023-07-22T07:25:58;21.90;56.30
3504;DHT22;1766;53.490;10.174;2023-07-22T07:28:00;21.90;55.60
3504;DHT22;1766;53.490;10.174;2023-07-22T07:30:03;22.00;55.50
3504;DHT22;1766;53.490;10.174;2023-07-22T07:32:06;22.00;55.80
3504;DHT22;1766;53.490;10.174;2023-07-22T07:34:08;22.10;54.80
3504;DHT22;1766;53.490;10.174;2023-07-22T07:36:11;22.10;54.40
3504;DHT22;1766;53.490;10.174;2023-07-22T07:38:13;22.20;54.30
3504;DHT22;1766;53.490;10.174;2023-07-22T07:40:16;22.20;53.90
3504;DHT22;1766;53.490;10.174;2023-07-22T07:42:18;22.30;53.70
3504;DHT22;1766;53.490;10.174;2023-07-22T07:44:20;22.30;53.10
3504;DHT22;1766;53.490;10.174;2023-07-22T07:46:24;22.30;53.00
3504;DHT22;1766;53.490;10.174;2023-07-22T07:48:27;22.40;53.00
3504;DHT22;1766;53.490;10.174;2023-07-22T07:50:29;22.40;52.30
3504;DHT22;1766;53.490;10.174;2023-07-22T07:52:32;22.40;52.00
3504;DHT22;1766;53.490;10.174;2023-07-22T07:54:34;22.50;51.70
3504;DHT22;1766;53.490;10.174;2023-07-22T07:56:38;22.50;51.30
3504;DHT22;1766;53.490;10.174;2023-07-22T07:58:40;22.50;51.00
3504;DHT22;1766;53.490;10.174;2023-07-22T08:00:42;22.50;50.80
3504;DHT22;1766;53.490;10.174;2023-07-22T08:02:44;22.50;50.60
3504;DHT22;1766;53.490;10.174;2023-07-22T08:04:46;22.40;50.50
3504;DHT22;1766;53.490;10.174;2023-07-22T08:06:49;22.50;50.70
3504;DHT22;1766;53.490;10.174;2023-07-22T08:08:51;22.50;50.70
3504;DHT22;1766;53.490;10.174;2023-07-22T08:11:01;22.50;50.60
3504;DHT22;1766;53.490;10.174;2023-07-22T08:13:06;22.50;50.80
3504;DHT22;1766;53.490;10.174;2023-07-22T08:15:09;22.60;51.00
3504;DHT22;1766;53.490;10.174;2023-07-22T08:17:11;22.60;51.20
3504;DHT22;1766;53.490;10.174;2023-07-22T08:19:12;22.60;51.00
3504;DHT22;1766;53.490;10.174;2023-07-22T08:21:16;22.50;51.20
3504;DHT22;1766;53.490;10.174;2023-07-22T08:23:18;22.50;51.50
3504;DHT22;1766;53.490;10.174;2023-07-22T08:25:20;22.50;51.80
3504;DHT22;1766;53.490;10.174;2023-07-22T08:27:22;22.40;51.70
3504;DHT22;1766;53.490;10.174;2023-07-22T08:29:26;22.50;52.10
3504;DHT22;1766;53.490;10.174;2023-07-22T08:31:28;22.40;52.00
3504;DHT22;1766;53.490;10.174;2023-07-22T08:33:32;22.40;52.20
3504;DHT22;1766;53.490;10.174;2023-07-22T08:35:35;22.30;52.10
3504;DHT22;1766;53.490;10.174;2023-07-22T08:37:36;22.40;52.20
3504;DHT22;1766;53.490;10.174;2023-07-22T08:39:38;22.40;52.00
3504;DHT22;1766;53.490;10.174;2023-07-22T08:41:41;22.40;51.70
3504;DHT22;1766;53.490;10.174;2023-07-22T08:43:50;22.50;51.90
3504;DHT22;1766;53.490;10.174;2023-07-22T08:46:00;22.50;51.60
3504;DHT22;1766;53.490;10.174;2023-07-22T08:48:04;22.60;51.30
3504;DHT22;1766;53.490;10.174;2023-07-22T08:50:09;22.70;51.20
3504;DHT22;1766;53.490;10.174;2023-07-22T08:52:12;22.80;50.90
3504;DHT22;1766;53.490;10.174;2023-07-22T08:54:16;22.90;50.80
3504;DHT22;1766;53.490;10.174;2023-07-22T08:56:18;23.00;50.20
3504;DHT22;1766;53.490;10.174;2023-07-22T08:58:21;23.10;49.90
3504;DHT22;1766;53.490;10.174;2023-07-22T09:00:24;23.10;49.20
3504;DHT22;1766;53.490;10.174;2023-07-22T09:02:28;23.20;48.70
3504;DHT22;1766;53.490;10.174;2023-07-22T09:04:30;23.20;48.10
3504;DHT22;1766;53.490;10.174;2023-07-22T09:06:34;23.20;47.80
3504;DHT22;1766;53.490;10.174;2023-07-22T09:08:35;23.30;47.80
3504;DHT22;1766;53.490;10.174;2023-07-22T09:10:39;23.40;47.50
3504;DHT22;1766;53.490;10.174;2023-07-22T09:12:41;23.40;47.40
3504;DHT22;1766;53.490;10.174;2023-07-22T09:14:44;23.50;46.90
3504;DHT22;1766;53.490;10.174;2023-07-22T09:16:47;23.50;46.50
3504;DHT22;1766;53.490;10.174;2023-07-22T09:18:54;23.70;46.00
3504;DHT22;1766;53.490;10.174;2023-07-22T09:20:57;23.80;45.70
3504;DHT22;1766;53.490;10.174;2023-07-22T09:23:00;23.80;45.10
3504;DHT22;1766;53.490;10.174;2023-07-22T09:25:13;23.70;44.90
3504;DHT22;1766;53.490;10.174;2023-07-22T09:27:15;23.80;44.80
3504;DHT22;1766;53.490;10.174;2023-07-22T09:29:17;23.80;44.30
3504;DHT22;1766;53.490;10.174;2023-07-22T09:31:20;23.80;44.40
3504;DHT22;1766;53.490;10.174;2023-07-22T09:33:23;23.80;44.30
3504;DHT22;1766;53.490;10.174;2023-07-22T09:35:28;23.90;44.20
3504;DHT22;1766;53.490;10.174;2023-07-22T09:37:36;24.00;44.20
3504;DHT22;1766;53.490;10.174;2023-07-22T09:39:39;24.10;44.00
3504;DHT22;1766;53.490;10.174;2023-07-22T09:41:42;24.20;43.60
3504;DHT22;1766;53.490;10.174;2023-07-22T09:43:47;24.30;43.30
3504;DHT22;1766;53.490;10.174;2023-07-22T09:45:50;24.30;42.90
3504;DHT22;1766;53.490;10.174;2023-07-22T09:47:53;24.30;43.00
3504;DHT22;1766;53.490;10.174;2023-07-22T09:49:58;24.40;43.20
3504;DHT22;1766;53.490;10.174;2023-07-22T09:52:03;24.40;42.80
3504;DHT22;1766;53.490;10.174;2023-07-22T09:54:12;24.40;42.70
3504;DHT22;1766;53.490;10.174;2023-07-22T09:56:14;24.40;42.30
3504;DHT22;1766;53.490;10.174;2023-07-22T09:58:16;24.30;42.00
3504;DHT22;1766;53.490;10.174;2023-07-22T10:00:18;24.30;42.10
3504;DHT22;1766;53.490;10.174;2023-07-22T10:02:22;24.30;42.30
3504;DHT22;1766;53.490;10.174;2023-07-22T10:04:25;24.40;42.10
3504;DHT22;1766;53.490;10.174;2023-07-22T10:06:29;24.40;42.10
3504;DHT22;1766;53.490;10.174;2023-07-22T10:08:34;24.40;42.20
3504;DHT22;1766;53.490;10.174;2023-07-22T10:10:38;24.40;42.20
3504;DHT22;1766;53.490;10.174;2023-07-22T10:12:41;24.40;41.90
3504;DHT22;1766;53.490;10.174;2023-07-22T10:14:45;24.50;42.40
3504;DHT22;1766;53.490;10.174;2023-07-22T10:16:48;24.70;42.40
3504;DHT22;1766;53.490;10.174;2023-07-22T10:18:54;24.80;41.80
3504;DHT22;1766;53.490;10.174;2023-07-22T10:20:57;24.90;41.30
3504;DHT22;1766;53.490;10.174;2023-07-22T10:23:01;24.80;41.00
3504;DHT22;1766;53.490;10.174;2023-07-22T10:25:06;24.80;40.80
3504;DHT22;1766;53.490;10.174;2023-07-22T10:27:09;24.70;40.90
3504;DHT22;1766;53.490;10.174;2023-07-22T10:29:12;24.70;41.20
3504;DHT22;1766;53.490;10.174;2023-07-22T10:31:16;24.80;40.80
3504;DHT22;1766;53.490;10.174;2023-07-22T10:33:19;24.90;40.30
3504;DHT22;1766;53.490;10.174;2023-07-22T10:35:40;24.90;39.60
3504;DHT22;1766;53.490;10.174;2023-07-22T10:37:45;24.80;39.50
3504;DHT22;1766;53.490;10.174;2023-07-22T10:39:49;24.80;39.60
3504;DHT22;1766;53.490;10.174;2023-07-22T10:41:59;24.80;39.50
3504;DHT22;1766;53.490;10.174;2023-07-22T10:44:02;24.90;39.80
3504;DHT22;1766;53.490;10.174;2023-07-22T10:46:05;24.90;39.40
3504;DHT22;1766;53.490;10.174;2023-07-22T10:48:10;25.00;39.20
3504;DHT22;1766;53.490;10.174;2023-07-22T10:50:15;25.20;39.10
3504;DHT22;1766;53.490;10.174;2023-07-22T10:52:38;25.30;38.50
3504;DHT22;1766;53.490;10.174;2023-07-22T10:54:42;25.30;38.20
3504;DHT22;1766;53.490;10.174;2023-07-22T10:56:44;25.40;38.00
3504;DHT22;1766;53.490;10.174;2023-07-22T10:59:03;25.40;37.90
3504;DHT22;1766;53.490;10.174;2023-07-22T11:01:21;25.50;37.80
3504;DHT22;1766;53.490;10.174;2023-07-22T11:03:26;25.60;37.80
3504;DHT22;1766;53.490;10.174;2023-07-22T11:05:47;25.60;37.40
3504;DHT22;1766;53.490;10.174;2023-07-22T11:07:51;25.60;37.30
3504;DHT22;1766;53.490;10.174;2023-07-22T11:09:54;25.60;37.00
3504;DHT22;1766;53.490;10.174;2023-07-22T11:11:58;25.60;36.70
3504;DHT22;1766;53.490;10.174;2023-07-22T11:14:16;25.60;36.80
3504;DHT22;1766;53.490;10.174;2023-07-22T11:16:20;25.50;36.60
3504;DHT22;1766;53.490;10.174;2023-07-22T11:18:22;25.50;36.60
3504;DHT22;1766;53.490;10.174;2023-07-22T11:20:24;25.50;36.50
3504;DHT22;1766;53.490;10.174;2023-07-22T11:22:26;25.70;36.60
3504;DHT22;1766;53.490;10.174;2023-07-22T11:24:32;25.80;36.30
3504;DHT22;1766;53.490;10.174;2023-07-22T11:26:35;25.80;36.30
3504;DHT22;1766;53.490;10.174;2023-07-22T11:28:38;25.90;36.30
3504;DHT22;1766;53.490;10.174;2023-07-22T11:30:43;25.90;36.20
3504;DHT22;1766;53.490;10.174;2023-07-22T11:32:45;26.00;36.10
3504;DHT22;1766;53.490;10.174;2023-07-22T11:34:50;25.90;36.20
3504;DHT22;1766;53.490;10.174;2023-07-22T11:36:55;25.90;36.10
3504;DHT22;1766;53.490;10.174;2023-07-22T11:41:10;25.90;36.00
3504;DHT22;1766;53.490;10.174;2023-07-22T11:43:12;26.00;36.20
3504;DHT22;1766;53.490;10.174;2023-07-22T11:45:16;25.90;36.20
3504;DHT22;1766;53.490;10.174;2023-07-22T11:47:19;25.90;36.00
3504;DHT22;1766;53.490;10.174;2023-07-22T11:49:24;25.90;36.20
3504;DHT22;1766;53.490;10.174;2023-07-22T11:51:26;25.90;36.20
3504;DHT22;1766;53.490;10.174;2023-07-22T11:53:28;25.90;36.20
3504;DHT22;1766;53.490;10.174;2023-07-22T11:55:30;25.90;36.20
3504;DHT22;1766;53.490;10.174;2023-07-22T11:57:36;25.70;36.30
3504;DHT22;1766;53.490;10.174;2023-07-22T11:59:44;25.80;36.30
3504;DHT22;1766;53.490;10.174;2023-07-22T12:01:46;25.70;36.20
3504;DHT22;1766;53.490;10.174;2023-07-22T12:03:55;25.70;36.00
3504;DHT22;1766;53.490;10.174;2023-07-22T12:06:01;25.70;35.70
3504;DHT22;1766;53.490;10.174;2023-07-22T12:08:03;25.70;36.10
3504;DHT22;1766;53.490;10.174;2023-07-22T12:10:08;25.60;36.30
3504;DHT22;1766;53.490;10.174;2023-07-22T12:12:10;25.50;36.30
3504;DHT22;1766;53.490;10.174;2023-07-22T12:14:13;25.50;36.40
3504;DHT22;1766;53.490;10.174;2023-07-22T12:16:21;25.40;36.50
3504;DHT22;1766;53.490;10.174;2023-07-22T12:18:24;25.40;36.80
3504;DHT22;1766;53.490;10.174;2023-07-22T12:20:28;25.40;37.00
3504;DHT22;1766;53.490;10.174;2023-07-22T12:22:31;25.50;37.20
3504;DHT22;1766;53.490;10.174;2023-07-22T12:24:33;25.70;36.80
3504;DHT22;1766;53.490;10.174;2023-07-22T12:26:35;25.70;36.60
3504;DHT22;1766;53.490;10.174;2023-07-22T12:28:37;25.70;36.50
3504;DHT22;1766;53.490;10.174;2023-07-22T12:30:40;25.70;36.40
3504;DHT22;1766;53.490;10.174;2023-07-22T12:32:43;25.80;36.40
3504;DHT22;1766;53.490;10.174;2023-07-22T12:34:45;25.80;36.40
3504;DHT22;1766;53.490;10.174;2023-07-22T12:36:49;25.70;36.40
3504;DHT22;1766;53.490;10.174;2023-07-22T12:38:50;25.70;36.60
3504;DHT22;1766;53.490;10.174;2023-07-22T12:40:51;25.70;36.80
3504;DHT22;1766;53.490;10.174;2023-07-22T12:42:53;25.60;36.80
3504;DHT22;1766;53.490;10.174;2023-07-22T12:44:55;25.70;36.90
3504;DHT22;1766;53.490;10.174;2023-07-22T12:46:57;25.60;36.90
3504;DHT22;1766;53.490;10.174;2023-07-22T12:48:59;25.50;36.80
3504;DHT22;1766;53.490;10.174;2023-07-22T12:51:01;25.50;36.50
3504;DHT22;1766;53.490;10.174;2023-07-22T12:53:05;25.40;36.70
3504;DHT22;1766;53.490;10.174;2023-07-22T12:55:06;25.30;36.90
3504;DHT22;1766;53.490;10.174;2023-07-22T12:57:08;25.30;37.20
3504;DHT22;1766;53.490;10.174;2023-07-22T12:59:10;25.30;37.20
3504;DHT22;1766;53.490;10.174;2023-07-22T13:01:12;25.30;37.40
3504;DHT22;1766;53.490;10.174;2023-07-22T13:03:14;25.20;37.50
3504;DHT22;1766;53.490;10.174;2023-07-22T13:05:18;25.20;37.80
3504;DHT22;1766;53.490;10.174;2023-07-22T13:07:21;25.20;37.90
3504;DHT22;1766;53.490;10.174;2023-07-22T13:09:23;25.20;38.20
3504;DHT22;1766;53.490;10.174;2023-07-22T13:11:25;25.10;38.20